Munte, Belgium
Current Conditions -  °F | °C
As of 4:55 AM on Thursday 18 Dec 2014 (Local Time) from EHFS Reporting Station
Overcast Overcast  
Wind Chill: 50°   Ceiling: 1400
Heat Index: 50°   Visibility: 4mi
Dew Point: 48°   Wind: 18mph
Humidity: 94%   Direction: 230°SW
Pressure: 29.77"   Gusts: NA
Location:  50.95°N, 3.74°E
Report Text: EHFS 180355Z AUTO 23016KT 7000 FEW008/// BKN014/// OVC018///10/09 Q1008
Loading
Personal Weather Stations






























Interactive Weather Map New forecast layout! Learn more

10-Day Weather Forecast

Advertisements
Track Severe Weather on mobile